createdAt,value
2022-08-26T00:01:54.298Z,100689.97
2022-08-26T00:04:23.812Z,100676.59
2022-08-26T00:06:52.415Z,100678.53
2022-08-26T00:09:19.652Z,100686.50
2022-08-26T00:11:47.454Z,100685.91
2022-08-26T00:14:16.387Z,100686.34
2022-08-26T00:16:47.239Z,100681.69
2022-08-26T00:19:18.017Z,100677.22
2022-08-26T00:21:48.558Z,100691.81
2022-08-26T00:24:16.991Z,100684.44
2022-08-26T00:26:44.594Z,100677.03
2022-08-26T00:29:12.551Z,100672.75
2022-08-26T00:31:40.962Z,100681.34
2022-08-26T00:34:09.490Z,100679.41
2022-08-26T00:36:37.608Z,100683.69
2022-08-26T00:39:07.586Z,100686.44
2022-08-26T00:41:37.696Z,100679.41
2022-08-26T00:44:05.654Z,100680.00
2022-08-26T00:46:37.107Z,100672.03
2022-08-26T00:49:17.378Z,100666.19
2022-08-26T00:51:49.616Z,100678.25
2022-08-26T00:54:20.589Z,100670.88
2022-08-26T00:57:05.023Z,100675.75
2022-08-26T00:59:36.568Z,100673.44
2022-08-26T01:02:06.780Z,100680.81
2022-08-26T01:04:48.723Z,100673.06
2022-08-26T01:07:22.010Z,100673.66
2022-08-26T01:09:49.317Z,100682.59
2022-08-26T01:12:22.055Z,100683.16
2022-08-26T01:14:50.380Z,100680.63
2022-08-26T01:17:18.514Z,100676.59
2022-08-26T01:19:51.114Z,100687.28
2022-08-26T01:22:28.635Z,100680.66
2022-08-26T01:24:59.700Z,100688.63
2022-08-26T01:27:32.420Z,100684.78
2022-08-26T01:30:01.888Z,100688.44
2022-08-26T01:32:33.323Z,100685.03
2022-08-26T01:35:01.204Z,100678.78
2022-08-26T01:37:35.203Z,100684.59
2022-08-26T01:40:04.630Z,100673.34
2022-08-26T01:42:32.064Z,100673.72
2022-08-26T01:45:14.783Z,100669.09
2022-08-26T01:47:43.340Z,100671.22
2022-08-26T01:50:27.999Z,100653.72
2022-08-26T01:53:01.944Z,100676.81
2022-08-26T01:55:33.198Z,100662.47
2022-08-26T01:58:06.628Z,100667.94
2022-08-26T02:00:35.813Z,100669.06
2022-08-26T02:03:17.514Z,100665.22
2022-08-26T02:05:55.035Z,100672.41
2022-08-26T02:08:28.931Z,100665.97
2022-08-26T02:10:56.144Z,100661.09
2022-08-26T02:13:26.748Z,100662.50
2022-08-26T02:15:55.486Z,100666.00
2022-08-26T02:18:23.934Z,100671.84
2022-08-26T02:20:54.487Z,100669.09
2022-08-26T02:23:21.895Z,100665.59
2022-08-26T02:26:02.931Z,100662.09
2022-08-26T02:28:35.905Z,100656.88
2022-08-26T02:31:03.596Z,100661.13
2022-08-26T02:33:32.021Z,100667.94
2022-08-26T02:35:59.531Z,100668.31
2022-08-26T02:38:26.886Z,100650.91
2022-08-26T02:40:54.544Z,100666.63
2022-08-26T02:43:23.871Z,100662.34
2022-08-26T02:46:00.091Z,100662.94
2022-08-26T02:48:29.036Z,100665.47
2022-08-26T02:50:56.456Z,100662.19
2022-08-26T02:53:25.479Z,100666.44
2022-08-26T02:55:53.132Z,100665.66
2022-08-26T02:58:20.790Z,100670.34
2022-08-26T03:00:53.147Z,100666.03
2022-08-26T03:03:22.508Z,100677.91
2022-08-26T03:05:52.100Z,100666.25
2022-08-26T03:08:19.743Z,100669.16
2022-08-26T03:10:48.069Z,100679.47
2022-08-26T03:13:16.922Z,100669.94
2022-08-26T03:15:44.449Z,100674.41
2022-08-26T03:18:15.097Z,100679.06
2022-08-26T03:20:42.355Z,100686.84
2022-08-26T03:23:11.179Z,100683.16
2022-08-26T03:25:38.792Z,100686.06
2022-08-26T03:28:06.076Z,100683.53
2022-08-26T03:30:45.047Z,100680.44
2022-08-26T03:33:13.777Z,100693.06
2022-08-26T03:35:43.611Z,100696.56
2022-08-26T03:38:11.752Z,100693.66
2022-08-26T03:40:39.824Z,100701.63
2022-08-26T03:43:10.668Z,100701.81
2022-08-26T03:45:38.701Z,100706.84
2022-08-26T03:48:06.023Z,100702.22
2022-08-26T03:50:34.284Z,100695.59
2022-08-26T03:53:04.210Z,100694.81
2022-08-26T03:55:34.511Z,100702.00
2022-08-26T03:58:02.285Z,100707.25
2022-08-26T04:00:30.295Z,100700.25
2022-08-26T04:02:57.875Z,100698.50
2022-08-26T04:05:25.373Z,100707.66
2022-08-26T04:07:52.596Z,100703.78
2022-08-26T04:10:26.426Z,100697.94
2022-08-26T04:12:58.849Z,100700.25
2022-08-26T04:15:27.273Z,100696.00
2022-08-26T04:17:56.029Z,100689.19
2022-08-26T04:20:25.983Z,100694.44
2022-08-26T04:22:53.649Z,100690.16
2022-08-26T04:25:21.431Z,100704.19
2022-08-26T04:27:48.679Z,100691.19
2022-08-26T04:30:17.905Z,100704.56
2022-08-26T04:32:45.687Z,100703.41
2022-08-26T04:35:12.917Z,100708.06
2022-08-26T04:37:40.208Z,100708.25
2022-08-26T04:40:10.970Z,100698.75
2022-08-26T04:42:38.319Z,100710.00
2022-08-26T04:45:10.361Z,100705.72
2022-08-26T04:47:38.639Z,100711.72
2022-08-26T04:50:07.652Z,100720.47
2022-08-26T04:52:36.372Z,100708.03
2022-08-26T04:55:05.982Z,100712.13
2022-08-26T04:57:33.903Z,100712.31
2022-08-26T05:00:01.051Z,100713.09
2022-08-26T05:02:28.720Z,100710.00
2022-08-26T05:04:55.871Z,100710.19
2022-08-26T05:07:23.055Z,100706.66
2022-08-26T05:09:50.133Z,100704.13
2022-08-26T05:12:17.290Z,100702.75
2022-08-26T05:14:46.500Z,100701.63
2022-08-26T05:17:15.035Z,100707.63
2022-08-26T05:19:42.956Z,100702.97
2022-08-26T05:22:10.356Z,100715.97
2022-08-26T05:24:41.358Z,100714.59
2022-08-26T05:27:11.696Z,100713.47
2022-08-26T05:29:41.073Z,100709.56
2022-08-26T05:32:08.432Z,100705.31
2022-08-26T05:34:38.616Z,100714.63
2022-08-26T05:37:06.788Z,100717.75
2022-08-26T05:39:34.400Z,100716.81
2022-08-26T05:42:01.609Z,100720.47
2022-08-26T05:44:29.631Z,100719.72
2022-08-26T05:47:16.771Z,100710.59
2022-08-26T05:49:51.612Z,100717.75
2022-08-26T05:52:19.589Z,100720.50
2022-08-26T05:54:47.777Z,100720.88
2022-08-26T05:57:15.231Z,100720.09
2022-08-26T05:59:42.448Z,100707.63
2022-08-26T06:02:10.188Z,100718.09
2022-08-26T06:04:37.324Z,100714.63
2022-08-26T06:07:04.561Z,100713.47
2022-08-26T06:09:33.064Z,100717.00
2022-08-26T06:12:01.869Z,100711.78
2022-08-26T06:14:30.621Z,100723.63
2022-08-26T06:16:57.903Z,100720.47
2022-08-26T06:19:25.122Z,100724.75
2022-08-26T06:22:22.445Z,100715.56
2022-08-26T06:25:10.126Z,100719.88
2022-08-26T06:27:37.424Z,100730.34
2022-08-26T06:30:04.856Z,100715.56
2022-08-26T06:32:32.130Z,100722.97
2022-08-26T06:34:59.321Z,100731.69
2022-08-26T06:37:26.492Z,100727.00
2022-08-26T06:39:53.623Z,100723.31
2022-08-26T06:42:20.848Z,100724.66
2022-08-26T06:44:48.023Z,100718.81
2022-08-26T06:47:15.263Z,100712.16
2022-08-26T06:49:42.453Z,100718.56
2022-08-26T06:52:11.457Z,100711.13
2022-08-26T06:54:43.184Z,100710.91
2022-08-26T06:57:12.438Z,100712.41
2022-08-26T06:59:41.436Z,100706.75
2022-08-26T07:02:08.668Z,100702.31
2022-08-26T07:04:41.120Z,100701.28
2022-08-26T07:07:09.672Z,100706.34
2022-08-26T07:09:37.548Z,100703.78
2022-08-26T07:12:06.846Z,100696.75
2022-08-26T07:14:34.907Z,100695.34
2022-08-26T07:17:02.999Z,100689.25
2022-08-26T07:19:31.766Z,100696.00
2022-08-26T07:22:04.948Z,100695.56
2022-08-26T07:24:35.586Z,100692.28
2022-08-26T07:27:09.087Z,100695.75
2022-08-26T07:29:38.045Z,100691.00
2022-08-26T07:32:06.706Z,100694.38
2022-08-26T07:34:33.928Z,100695.13
2022-08-26T07:37:01.600Z,100694.69
2022-08-26T07:39:31.677Z,100685.66
2022-08-26T07:42:07.881Z,100687.56
2022-08-26T07:44:37.602Z,100684.75
2022-08-26T07:47:10.069Z,100687.06
2022-08-26T07:49:52.667Z,100685.94
2022-08-26T07:52:25.356Z,100685.44
2022-08-26T07:54:54.341Z,100695.41
2022-08-26T07:57:21.631Z,100695.84
2022-08-26T07:59:54.067Z,100686.03
2022-08-26T08:02:23.929Z,100695.09
2022-08-26T08:04:51.915Z,100694.06
2022-08-26T08:07:19.339Z,100689.50
2022-08-26T08:09:49.601Z,100687.41
2022-08-26T08:12:19.193Z,100687.94
2022-08-26T08:14:47.297Z,100687.16
2022-08-26T08:17:16.329Z,100685.84
2022-08-26T08:19:43.748Z,100685.41
2022-08-26T08:22:17.367Z,100681.50
2022-08-26T08:24:49.715Z,100676.19
2022-08-26T08:27:23.288Z,100677.81
2022-08-26T08:29:54.369Z,100672.75
2022-08-26T08:32:23.765Z,100659.38
2022-08-26T08:34:51.112Z,100671.16
2022-08-26T08:37:18.918Z,100662.22
2022-08-26T08:39:46.030Z,100665.06
2022-08-26T08:42:30.328Z,100664.91
2022-08-26T08:45:02.357Z,100655.03
2022-08-26T08:47:39.920Z,100656.13
2022-08-26T08:50:17.782Z,100652.59
2022-08-26T08:52:51.162Z,100651.22
2022-08-26T08:55:18.821Z,100651.59
2022-08-26T08:57:49.357Z,100646.19
2022-08-26T09:00:30.655Z,100646.66
2022-08-26T09:03:07.553Z,100644.63
2022-08-26T09:05:48.743Z,100639.53
2022-08-26T09:08:21.929Z,100649.75
2022-08-26T09:10:59.617Z,100643.53
2022-08-26T09:13:28.460Z,100642.00
2022-08-26T09:16:22.493Z,100634.41
2022-08-26T09:19:14.354Z,100638.91
2022-08-26T09:21:41.552Z,100645.09
2022-08-26T09:24:11.240Z,100639.38
2022-08-26T09:26:43.811Z,100641.03
2022-08-26T09:29:33.999Z,100637.91
2022-08-26T09:32:24.447Z,100632.59
2022-08-26T09:34:56.936Z,100635.66
2022-08-26T09:40:27.129Z,100626.66
2022-08-26T09:43:06.779Z,100624.94
2022-08-26T09:45:36.294Z,100620.59
2022-08-26T09:48:03.703Z,100619.25
2022-08-26T09:50:50.448Z,100619.69
2022-08-26T09:53:28.507Z,100622.25
2022-08-26T09:56:32.805Z,100627.53
2022-08-26T09:59:01.476Z,100627.94
2022-08-26T10:01:30.839Z,100620.88
2022-08-26T10:04:20.137Z,100628.09
2022-08-26T10:07:07.546Z,100613.56
2022-08-26T10:09:39.940Z,100618.94
2022-08-26T10:12:12.081Z,100611.91
2022-08-26T10:17:29.126Z,100610.78
2022-08-26T10:20:24.974Z,100608.78
2022-08-26T10:23:18.100Z,100604.44
2022-08-26T10:26:14.514Z,100609.63
2022-08-26T10:29:07.632Z,100607.56
2022-08-26T10:31:41.185Z,100594.84
2022-08-26T10:34:12.471Z,100598.63
2022-08-26T10:37:10.543Z,100591.59
2022-08-26T10:39:56.934Z,100600.97
2022-08-26T10:42:40.564Z,100601.03
2022-08-26T10:45:28.933Z,100596.63
2022-08-26T10:48:05.368Z,100593.84
2022-08-26T10:50:40.323Z,100579.38
2022-08-26T10:53:32.636Z,100592.56
2022-08-26T10:56:18.867Z,100579.06
2022-08-26T10:58:55.304Z,100588.34
2022-08-26T11:01:41.086Z,100584.03
2022-08-26T11:04:35.092Z,100584.22
2022-08-26T11:07:31.758Z,100586.25
2022-08-26T11:10:06.880Z,100576.50
2022-08-26T11:12:37.230Z,100579.97
2022-08-26T11:15:20.044Z,100577.19
2022-08-26T11:17:51.932Z,100577.84
2022-08-26T11:20:37.124Z,100568.56
2022-08-26T11:23:12.763Z,100570.91
2022-08-26T11:26:01.579Z,100567.91
2022-08-26T11:28:44.801Z,100553.53
2022-08-26T11:31:34.688Z,100565.38
2022-08-26T11:34:07.147Z,100566.19
2022-08-26T11:36:51.866Z,100565.66
2022-08-26T11:39:30.391Z,100560.03
2022-08-26T11:42:14.350Z,100559.41
2022-08-26T11:44:49.166Z,100554.81
2022-08-26T11:47:25.083Z,100559.56
2022-08-26T11:50:11.332Z,100553.66
2022-08-26T11:52:38.600Z,100544.38
2022-08-26T11:55:08.994Z,100547.22
2022-08-26T11:57:44.962Z,100543.72
2022-08-26T12:00:22.186Z,100537.31
2022-08-26T12:02:52.645Z,100541.44
2022-08-26T12:05:36.270Z,100537.31
2022-08-26T12:08:12.215Z,100544.44
2022-08-26T12:10:40.301Z,100521.78
2022-08-26T12:13:16.759Z,100525.25
2022-08-26T12:15:53.282Z,100513.25
2022-08-26T12:18:29.529Z,100521.22
2022-08-26T12:21:00.664Z,100501.91
2022-08-26T12:23:36.999Z,100500.47
2022-08-26T12:26:21.244Z,100498.06
2022-08-26T12:28:53.090Z,100501.00
2022-08-26T12:31:30.266Z,100496.50
2022-08-26T12:34:00.680Z,100491.88
2022-08-26T12:36:43.192Z,100494.22
2022-08-26T12:39:33.489Z,100476.13
2022-08-26T12:42:24.775Z,100480.50
2022-08-26T12:44:59.213Z,100478.97
2022-08-26T12:47:42.970Z,100472.03
2022-08-26T12:50:32.775Z,100479.09
2022-08-26T12:53:17.005Z,100475.63
2022-08-26T12:55:48.525Z,100472.41
2022-08-26T12:58:15.694Z,100468.59
2022-08-26T13:00:45.068Z,100477.69
2022-08-26T13:03:31.699Z,100477.03
2022-08-26T13:06:18.035Z,100477.16
2022-08-26T13:08:48.443Z,100472.25
2022-08-26T13:11:20.696Z,100477.47
2022-08-26T13:13:53.431Z,100477.56
2022-08-26T13:16:22.409Z,100478.28
2022-08-26T13:18:53.158Z,100473.75
2022-08-26T13:21:23.983Z,100480.69
2022-08-26T13:23:52.056Z,100475.34
2022-08-26T13:26:20.997Z,100470.84
2022-08-26T13:29:01.557Z,100471.22
2022-08-26T13:31:33.049Z,100460.28
2022-08-26T13:34:01.119Z,100456.66
2022-08-26T13:36:28.483Z,100457.94
2022-08-26T13:38:55.831Z,100451.09
2022-08-26T13:41:29.260Z,100454.75
2022-08-26T13:43:58.191Z,100456.66
2022-08-26T13:46:28.211Z,100445.47
2022-08-26T13:48:57.559Z,100447.47
2022-08-26T13:51:26.335Z,100449.03
2022-08-26T13:53:54.365Z,100439.22
2022-08-26T13:56:23.028Z,100436.63
2022-08-26T13:58:50.424Z,100434.84
2022-08-26T14:01:17.883Z,100436.88
2022-08-26T14:03:46.278Z,100429.09
2022-08-26T14:06:13.768Z,100441.94
2022-08-26T14:08:43.139Z,100423.94
2022-08-26T14:11:10.495Z,100432.41
2022-08-26T14:13:39.266Z,100429.78
2022-08-26T14:16:10.912Z,100423.56
2022-08-26T14:18:44.396Z,100427.06
2022-08-26T14:21:14.733Z,100426.06
2022-08-26T14:23:42.089Z,100420.38
2022-08-26T14:26:11.051Z,100416.56
2022-08-26T14:28:44.794Z,100420.16
2022-08-26T14:31:12.702Z,100417.19
2022-08-26T14:33:40.078Z,100421.41
2022-08-26T14:36:26.378Z,100419.09
2022-08-26T14:38:55.707Z,100412.13
2022-08-26T14:41:25.484Z,100414.31
2022-08-26T14:44:13.759Z,100415.19
2022-08-26T14:46:48.168Z,100406.06
2022-08-26T14:49:20.072Z,100415.28
2022-08-26T14:51:47.405Z,100409.47
2022-08-26T14:54:16.331Z,100407.41
2022-08-26T14:56:51.389Z,100404.31
2022-08-26T14:59:21.943Z,100401.91
2022-08-26T15:01:49.390Z,100399.75
2022-08-26T15:04:17.039Z,100399.13
2022-08-26T15:06:44.424Z,100397.53
2022-08-26T15:09:11.723Z,100398.50
2022-08-26T15:11:39.503Z,100388.34
2022-08-26T15:14:07.183Z,100391.16
2022-08-26T15:16:35.067Z,100400.34
2022-08-26T15:19:05.127Z,100397.44
2022-08-26T15:21:34.206Z,100389.78
2022-08-26T15:24:02.925Z,100382.88
2022-08-26T15:26:31.619Z,100390.53
2022-08-26T15:29:03.093Z,100388.47
2022-08-26T15:31:33.014Z,100392.59
2022-08-26T15:34:04.375Z,100396.66
2022-08-26T15:36:32.574Z,100390.63
2022-08-26T15:39:01.190Z,100394.63
2022-08-26T15:41:29.520Z,100403.84
2022-08-26T15:43:57.817Z,100403.56
2022-08-26T15:46:24.952Z,100398.44
2022-08-26T15:48:52.737Z,100390.38
2022-08-26T15:51:23.189Z,100388.94
2022-08-26T15:53:51.507Z,100382.81
2022-08-26T15:56:19.045Z,100386.16
2022-08-26T15:58:47.074Z,100377.94
2022-08-26T16:01:14.925Z,100375.88
2022-08-26T16:03:52.434Z,100382.72
2022-08-26T16:06:24.127Z,100368.63
2022-08-26T16:08:51.925Z,100380.03
2022-08-26T16:11:20.051Z,100379.47
2022-08-26T16:13:47.884Z,100377.94
2022-08-26T16:16:16.077Z,100377.44
2022-08-26T16:18:43.962Z,100379.63
2022-08-26T16:21:20.954Z,100381.03
2022-08-26T16:23:48.793Z,100390.53
2022-08-26T16:26:18.599Z,100394.00
2022-08-26T16:28:46.899Z,100381.56
2022-08-26T16:31:14.849Z,100384.63
2022-08-26T16:33:42.297Z,100386.56
2022-08-26T16:36:10.361Z,100374.66
2022-08-26T16:38:38.598Z,100376.97
2022-08-26T16:41:06.477Z,100378.03
2022-08-26T16:43:34.375Z,100372.66
2022-08-26T16:46:01.689Z,100385.59
2022-08-26T16:48:28.943Z,100385.97
2022-08-26T16:50:56.056Z,100377.00
2022-08-26T16:53:23.642Z,100384.56
2022-08-26T16:55:51.481Z,100386.19
2022-08-26T16:58:21.935Z,100390.28
2022-08-26T17:00:49.555Z,100385.13
2022-08-26T17:03:16.980Z,100398.44
2022-08-26T17:05:44.622Z,100390.25
2022-08-26T17:08:14.542Z,100390.25
2022-08-26T17:10:54.853Z,100390.00
2022-08-26T17:13:34.877Z,100374.91
2022-08-26T17:16:05.201Z,100390.47
2022-08-26T17:18:33.645Z,100400.44
2022-08-26T17:21:03.917Z,100400.91
2022-08-26T17:23:31.158Z,100398.34
2022-08-26T17:25:58.329Z,100395.13
2022-08-26T17:28:25.551Z,100396.25
2022-08-26T17:30:52.845Z,100394.28
2022-08-26T17:33:22.099Z,100397.75
2022-08-26T17:35:53.100Z,100402.28
2022-08-26T17:38:21.663Z,100393.69
2022-08-26T17:40:49.768Z,100399.63
2022-08-26T17:43:17.867Z,100402.06
2022-08-26T17:45:45.167Z,100405.75
2022-08-26T17:48:12.588Z,100401.41
2022-08-26T17:50:41.493Z,100408.69
2022-08-26T17:53:17.837Z,100412.53
2022-08-26T17:55:47.655Z,100421.06
2022-08-26T17:58:17.317Z,100426.91
2022-08-26T18:00:47.229Z,100429.56
2022-08-26T18:03:14.575Z,100430.84
2022-08-26T18:05:42.759Z,100433.00
2022-08-26T18:08:10.251Z,100431.91
2022-08-26T18:10:37.709Z,100438.16
2022-08-26T18:13:04.999Z,100437.88
2022-08-26T18:15:32.376Z,100447.47
2022-08-26T18:17:59.860Z,100456.25
2022-08-26T18:20:26.983Z,100447.59
2022-08-26T18:22:54.231Z,100455.03
2022-08-26T18:25:21.483Z,100457.66
2022-08-26T18:27:48.737Z,100452.25
2022-08-26T18:30:20.793Z,100450.72
2022-08-26T18:32:49.564Z,100456.72
2022-08-26T18:35:17.593Z,100453.81
2022-08-26T18:37:45.270Z,100453.81
2022-08-26T18:40:14.301Z,100450.09
2022-08-26T18:42:41.781Z,100463.53
2022-08-26T18:45:10.094Z,100462.44
2022-08-26T18:47:44.061Z,100449.81
2022-08-26T18:50:11.300Z,100460.28
2022-08-26T18:52:38.679Z,100459.22
2022-08-26T18:55:07.023Z,100457.22
2022-08-26T18:57:34.166Z,100461.84
2022-08-26T19:00:02.280Z,100462.16
2022-08-26T19:02:30.651Z,100472.34
2022-08-26T19:04:57.986Z,100469.88
2022-08-26T19:07:25.495Z,100471.28
2022-08-26T19:09:54.138Z,100469.88
2022-08-26T19:12:21.857Z,100471.28
2022-08-26T19:14:49.040Z,100472.03
2022-08-26T19:17:16.266Z,100479.16
2022-08-26T19:19:43.444Z,100470.97
2022-08-26T19:22:12.913Z,100465.13
2022-08-26T19:24:40.016Z,100469.72
2022-08-26T19:27:09.717Z,100463.41
2022-08-26T19:29:38.855Z,100477.41
2022-08-26T19:32:06.182Z,100473.69
2022-08-26T19:34:33.425Z,100472.16
2022-08-26T19:37:00.883Z,100470.59
2022-08-26T19:39:28.576Z,100475.69
2022-08-26T19:41:55.879Z,100471.06
2022-08-26T19:44:42.450Z,100473.84
2022-08-26T19:47:11.004Z,100484.47
2022-08-26T19:49:38.852Z,100482.78
2022-08-26T19:52:06.555Z,100485.84
2022-08-26T19:54:34.648Z,100474.88
2022-08-26T19:57:02.138Z,100485.34
2022-08-26T19:59:29.504Z,100484.59
2022-08-26T20:02:01.015Z,100483.66
2022-08-26T20:04:30.455Z,100491.66
2022-08-26T20:07:00.338Z,100490.13
2022-08-26T20:09:32.770Z,100471.44
2022-08-26T20:12:01.136Z,100487.59
2022-08-26T20:14:30.027Z,100486.94
2022-08-26T20:16:57.352Z,100489.56
2022-08-26T20:19:43.530Z,100492.47
2022-08-26T20:22:11.560Z,100487.25
2022-08-26T20:24:38.844Z,100496.94
2022-08-26T20:27:08.011Z,100490.75
2022-08-26T20:29:36.488Z,100490.75
2022-08-26T20:32:06.300Z,100496.13
2022-08-26T20:34:34.420Z,100498.91
2022-08-26T20:37:02.282Z,100504.75
2022-08-26T20:39:29.926Z,100503.38
2022-08-26T20:41:58.289Z,100494.88
2022-08-26T20:44:25.776Z,100497.41
2022-08-26T20:46:53.276Z,100504.50
2022-08-26T20:49:20.717Z,100496.34
2022-08-26T20:51:51.531Z,100503.72
2022-08-26T20:54:23.930Z,100506.66
2022-08-26T20:56:54.961Z,100502.19
2022-08-26T20:59:22.363Z,100499.84
2022-08-26T21:01:49.679Z,100496.44
2022-08-26T21:04:21.794Z,100499.34
2022-08-26T21:06:52.450Z,100497.63
2022-08-26T21:09:22.422Z,100505.22
2022-08-26T21:11:50.404Z,100497.47
2022-08-26T21:14:19.077Z,100497.31
2022-08-26T21:16:47.189Z,100502.38
2022-08-26T21:19:18.136Z,100503.16
2022-08-26T21:21:47.742Z,100495.56
2022-08-26T21:24:15.713Z,100499.91
2022-08-26T21:26:42.964Z,100502.81
2022-08-26T21:29:10.195Z,100496.13
2022-08-26T21:31:44.937Z,100505.53
2022-08-26T21:34:17.527Z,100501.81
2022-08-26T21:36:48.564Z,100496.94
2022-08-26T21:39:16.880Z,100502.34
2022-08-26T21:41:45.053Z,100503.91
2022-08-26T21:44:14.422Z,100496.84
2022-08-26T21:46:42.733Z,100510.09
2022-08-26T21:49:13.373Z,100504.06
2022-08-26T21:51:45.287Z,100501.94
2022-08-26T21:54:13.097Z,100507.00
2022-08-26T21:56:46.851Z,100501.16
2022-08-26T21:59:17.361Z,100505.25
2022-08-26T22:01:44.834Z,100497.56
2022-08-26T22:04:12.088Z,100510.28
2022-08-26T22:06:48.287Z,100505.66
2022-08-26T22:09:18.791Z,100493.53
2022-08-26T22:11:47.504Z,100507.88
2022-08-26T22:14:17.448Z,100499.28
2022-08-26T22:16:44.701Z,100496.72
2022-08-26T22:19:18.026Z,100511.16
2022-08-26T22:21:45.454Z,100496.03
2022-08-26T22:24:12.669Z,100507.28
2022-08-26T22:26:40.069Z,100510.38
2022-08-26T22:29:07.697Z,100498.78
2022-08-26T22:31:36.960Z,100501.88
2022-08-26T22:34:09.356Z,100499.13
2022-08-26T22:36:43.180Z,100493.13
2022-08-26T22:39:13.102Z,100495.66
2022-08-26T22:41:41.323Z,100486.91
2022-08-26T22:44:08.508Z,100491.78
2022-08-26T22:46:36.829Z,100490.84
2022-08-26T22:49:04.957Z,100497.72
2022-08-26T22:51:32.374Z,100495.81
2022-08-26T22:53:59.572Z,100489.13
2022-08-26T22:56:27.000Z,100492.81
2022-08-26T22:58:54.158Z,100493.78
2022-08-26T23:01:21.384Z,100500.56
2022-08-26T23:03:48.666Z,100493.94
2022-08-26T23:06:15.870Z,100490.16
2022-08-26T23:08:45.433Z,100507.94
2022-08-26T23:11:13.453Z,100498.41
2022-08-26T23:13:41.264Z,100506.41
2022-08-26T23:16:11.396Z,100507.16
2022-08-26T23:18:40.159Z,100506.81
2022-08-26T23:21:07.527Z,100505.88
2022-08-26T23:23:35.328Z,100499.28
2022-08-26T23:26:06.018Z,100500.03
2022-08-26T23:28:34.897Z,100502.03
2022-08-26T23:31:02.158Z,100504.59
2022-08-26T23:33:49.657Z,100519.44
2022-08-26T23:36:18.508Z,100504.25
2022-08-26T23:38:52.961Z,100505.00
2022-08-26T23:41:23.371Z,100507.19
2022-08-26T23:43:51.756Z,100504.25
2022-08-26T23:46:19.259Z,100510.09
2022-08-26T23:48:46.940Z,100509.75
2022-08-26T23:51:32.975Z,100515.25
2022-08-26T23:54:00.234Z,100513.69
2022-08-26T23:56:27.378Z,100515.25
2022-08-26T23:58:55.113Z,100511.38
